^^
Saratoga-Weather Station Historical Data
Daily Summary for February 6, 2021 Units:  Metric    English   Both
Daily Weekly Monthly Yearly Custom
  High: Low: Average:
Temperature: 21.3 °C 15.1 °C 17.8 °C
Dew Point: 16.7 °C 12.6 °C 15 °C
Humidity: 97% 59% 85%
Wind Speed: 20.9km/h 0km/h 2.6km/h
Wind Gust: 25.7km/h - -
Wind- - SSW
Pressure: 1010.2 hPa 1005.1 hPa -
Precipitation: 18.0 mm    
Historical Graphs
 
 
Tabular Data for February 6, 2021
Time Temperature Dew Point Pressure Wind Wind Speed Wind Gust Humidity Rainfall Rate (Hourly) solar
00:03 17 °C 15.9 °C 1007.5 hPa Calm     93% 0.0 mm 0 W/m2
00:08 16.9 °C 15.8 °C 1007.5 hPa Calm     93% 0.0 mm 0 W/m2
00:13 16.9 °C 15.8 °C 1007.5 hPa Calm     93% 0.0 mm 0 W/m2
00:18 16.9 °C 15.8 °C 1007.5 hPa Calm     93% 0.0 mm 0 W/m2
00:23 16.8 °C 15.7 °C 1007.5 hPa Calm     93% 0.0 mm 0 W/m2
00:28 16.8 °C 15.7 °C 1007.1 hPa Calm     93% 0.0 mm 0 W/m2
00:33 16.7 °C 15.6 °C 1007.1 hPa Calm     93% 0.0 mm 0 W/m2
00:38 16.7 °C 15.7 °C 1007.1 hPa Calm     94% 0.0 mm 0 W/m2
00:43 16.7 °C 15.7 °C 1007.1 hPa Calm     94% 0.0 mm 0 W/m2
00:48 16.7 °C 15.7 °C 1007.1 hPa Calm     94% 0.0 mm 0 W/m2
00:53 16.7 °C 15.7 °C 1006.8 hPa Calm     94% 0.0 mm 0 W/m2
00:58 16.6 °C 15.6 °C 1006.8 hPa Calm     94% 0.0 mm 0 W/m2
01:03 16.6 °C 15.6 °C 1006.8 hPa Calm     94% 0.0 mm 0 W/m2
01:08 16.5 °C 15.5 °C 1006.8 hPa Calm     94% 0.0 mm 0 W/m2
01:13 16.4 °C 15.4 °C 1006.8 hPa Calm     94% 0.0 mm 0 W/m2
01:18 16.3 °C 15.3 °C 1006.4 hPa Calm     94% 0.0 mm 0 W/m2
01:23 16.3 °C 15.3 °C 1006.4 hPa Calm     94% 0.0 mm 0 W/m2
01:28 16.3 °C 15.3 °C 1006.4 hPa Calm     94% 0.0 mm 0 W/m2
01:33 16.3 °C 15.3 °C 1006.4 hPa Calm     94% 0.0 mm 0 W/m2
01:38 16.2 °C 15.4 °C 1006.4 hPa Calm     95% 0.0 mm 0 W/m2
01:43 16.2 °C 15.2 °C 1006.4 hPa Calm     94% 0.0 mm 0 W/m2
01:49 16.1 °C 15.3 °C 1006.4 hPa Calm     95% 0.0 mm 0 W/m2
01:54 15.9 °C 15.1 °C 1006.4 hPa Calm     95% 0.0 mm 0 W/m2
01:59 15.9 °C 14.9 °C 1006.4 hPa Calm     94% 0.0 mm 0 W/m2
02:04 15.8 °C 15 °C 1006.4 hPa Calm     95% 0.0 mm 0 W/m2
02:09 15.8 °C 15 °C 1006.4 hPa WNW 1.4 km/h 1.6 km/h 95% 0.0 mm 0 W/m2
02:14 15.8 °C 15 °C 1006.1 hPa Calm     95% 0.0 mm 0 W/m2
02:19 15.7 °C 14.9 °C 1006.1 hPa Calm     95% 0.0 mm 0 W/m2
02:24 15.7 °C 14.9 °C 1006.1 hPa Calm     95% 0.0 mm 0 W/m2
02:29 15.7 °C 14.9 °C 1005.8 hPa Calm     95% 0.0 mm 0 W/m2
02:34 15.6 °C 14.8 °C 1005.8 hPa Calm     95% 0.0 mm 0 W/m2
02:39 15.6 °C 14.8 °C 1005.8 hPa Calm     95% 0.0 mm 0 W/m2
02:44 15.6 °C 14.8 °C 1005.8 hPa Calm     95% 0.0 mm 0 W/m2
02:49 15.5 °C 14.7 °C 1005.8 hPa Calm     95% 0.0 mm 0 W/m2
02:54 15.5 °C 14.7 °C 1005.8 hPa Calm     95% 0.0 mm 0 W/m2
02:59 15.4 °C 14.6 °C 1005.8 hPa Calm     95% 0.0 mm 0 W/m2
03:04 15.4 °C 14.8 °C 1005.8 hPa Calm     96% 0.0 mm 0 W/m2
03:09 15.3 °C 14.5 °C 1005.8 hPa Calm     95% 0.0 mm 0 W/m2
03:14 15.3 °C 14.5 °C 1005.8 hPa Calm     95% 0.0 mm 0 W/m2
03:19 15.3 °C 14.5 °C 1005.4 hPa Calm     95% 0.0 mm 0 W/m2
03:24 15.3 °C 14.7 °C 1005.8 hPa Calm     96% 0.0 mm 0 W/m2
03:29 15.3 °C 14.7 °C 1005.8 hPa Calm     96% 0.0 mm 0 W/m2
03:34 15.3 °C 14.7 °C 1005.4 hPa Calm     96% 0.0 mm 0 W/m2
03:39 15.3 °C 14.7 °C 1005.4 hPa Calm     96% 0.0 mm 0 W/m2
03:44 15.3 °C 14.7 °C 1005.4 hPa Calm     96% 0.0 mm 0 W/m2
03:49 15.2 °C 14.6 °C 1005.4 hPa Calm     96% 0.0 mm 0 W/m2
03:54 15.2 °C 14.6 °C 1005.4 hPa Calm     96% 0.0 mm 0 W/m2
03:59 15.2 °C 14.6 °C 1005.4 hPa Calm     96% 0.0 mm 0 W/m2
04:04 15.2 °C 14.6 °C 1005.4 hPa Calm     96% 0.0 mm 0 W/m2
04:09 15.1 °C 14.5 °C 1005.4 hPa Calm     96% 0.0 mm 0 W/m2
04:14 15.1 °C 14.5 °C 1005.4 hPa Calm     96% 0.0 mm 0 W/m2
04:19 15.1 °C 14.5 °C 1005.4 hPa Calm   3.2 km/h 96% 0.0 mm 0 W/m2
04:24 15.1 °C 14.5 °C 1005.4 hPa Calm     96% 0.0 mm 0 W/m2
04:29 15.1 °C 14.5 °C 1005.4 hPa Calm   1.6 km/h 96% 0.0 mm 0 W/m2
04:34 15.2 °C 14.6 °C 1005.4 hPa Calm   1.6 km/h 96% 0.0 mm 0 W/m2
04:39 15.2 °C 14.6 °C 1005.4 hPa Calm     96% 0.0 mm 0 W/m2
04:44 15.2 °C 14.6 °C 1005.1 hPa Calm     96% 0.0 mm 0 W/m2
04:49 15.2 °C 14.6 °C 1005.1 hPa Calm     96% 0.0 mm 0 W/m2
04:54 15.3 °C 14.7 °C 1005.1 hPa Calm     96% 0.0 mm 0 W/m2
04:59 15.3 °C 14.7 °C 1005.1 hPa Calm   1.6 km/h 96% 0.0 mm 0 W/m2
05:04 15.4 °C 14.8 °C 1005.1 hPa Calm   3.2 km/h 96% 0.0 mm 0 W/m2
05:09 15.4 °C 14.8 °C 1005.1 hPa West 4.8 km/h 4.8 km/h 96% 0.0 mm 0 W/m2
05:14 15.4 °C 14.8 °C 1005.4 hPa Calm   3.2 km/h 96% 0.0 mm 0 W/m2
05:19 15.5 °C 14.9 °C 1005.4 hPa West 4.8 km/h 4.8 km/h 96% 0.0 mm 0 W/m2
05:24 15.6 °C 15.1 °C 1005.4 hPa West 1.4 km/h 1.6 km/h 97% 0.0 mm 0 W/m2
05:29 15.6 °C 15.1 °C 1005.8 hPa Calm     97% 0.2 mm 0 W/m2
05:35 15.6 °C 15.1 °C 1005.8 hPa Calm     97% 0.5 mm 0 W/m2
05:40 15.7 °C 15.2 °C 1005.8 hPa Calm     97% 1.0 mm 0 W/m2
05:45 15.8 °C 15.3 °C 1006.1 hPa Calm     97% 1.5 mm 0 W/m2
05:50 15.9 °C 15.4 °C 1006.1 hPa Calm     97% 1.8 mm 0 W/m2
05:55 15.9 °C 15.4 °C 1006.1 hPa Calm     97% 2.3 mm 0 W/m2
06:00 15.9 °C 15.4 °C 1005.8 hPa Calm     97% 2.8 mm 0 W/m2
06:05 16 °C 15.5 °C 1005.8 hPa Calm     97% 3.3 mm 0 W/m2
06:10 15.9 °C 15.4 °C 1005.4 hPa Calm     97% 3.6 mm 0 W/m2
06:15 15.9 °C 15.4 °C 1005.1 hPa Calm     97% 3.8 mm 5 W/m2
06:20 15.9 °C 15.4 °C 1005.8 hPa Calm   3.2 km/h 97% 3.8 mm 7 W/m2
06:25 15.9 °C 15.4 °C 1006.1 hPa Calm     97% 3.8 mm 0 W/m2
06:30 15.9 °C 15.4 °C 1006.4 hPa Calm   3.2 km/h 97% 3.6 mm 0 W/m2
06:35 16 °C 15.5 °C 1006.4 hPa Calm     97% 3.3 mm 5 W/m2
06:40 16.1 °C 15.6 °C 1007.1 hPa NW 1.4 km/h 4.8 km/h 97% 3.3 mm 0 W/m2
06:45 16.4 °C 15.9 °C 1007.1 hPa West 9.7 km/h 9.7 km/h 97% 5.6 mm 0 W/m2
06:50 16.6 °C 16.1 °C 1006.8 hPa WNW 11.1 km/h 12.9 km/h 97% 8.4 mm 0 W/m2
06:55 16.6 °C 16.1 °C 1006.4 hPa West 1.4 km/h 11.3 km/h 97% 8.9 mm 9 W/m2
07:00 16.4 °C 15.9 °C 1006.4 hPa West 4.7 km/h 9.7 km/h 97% 8.6 mm 12 W/m2
07:05 16.4 °C 15.8 °C 1006.4 hPa West 4.7 km/h 11.3 km/h 96% 8.4 mm 16 W/m2
07:10 16.4 °C 15.8 °C 1006.4 hPa WNW 6.4 km/h 6.4 km/h 96% 7.9 mm 18 W/m2
07:15 16.4 °C 15.8 °C 1006.1 hPa NW 1.4 km/h 6.4 km/h 96% 7.9 mm 25 W/m2
07:20 16.4 °C 15.8 °C 1006.1 hPa Calm   3.2 km/h 96% 7.9 mm 16 W/m2
07:25 16.5 °C 15.9 °C 1006.1 hPa Calm   1.6 km/h 96% 7.9 mm 16 W/m2
07:30 16.5 °C 15.9 °C 1006.4 hPa WNW 1.4 km/h 3.2 km/h 96% 7.9 mm 19 W/m2
07:35 16.6 °C 16 °C 1006.8 hPa Calm     96% 7.9 mm 9 W/m2
07:40 16.6 °C 16 °C 1006.1 hPa North 1.4 km/h 3.2 km/h 96% 7.9 mm 11 W/m2
07:45 16.6 °C 16 °C 1006.4 hPa Calm   1.6 km/h 96% 5.8 mm 14 W/m2
07:50 16.6 °C 16 °C 1006.4 hPa Calm   1.6 km/h 96% 3.0 mm 16 W/m2
07:55 16.6 °C 16 °C 1006.8 hPa Calm   3.2 km/h 96% 2.3 mm 9 W/m2
08:00 16.6 °C 16.1 °C 1006.8 hPa NE 3.2 km/h 4.8 km/h 97% 2.5 mm 11 W/m2
08:05 16.6 °C 16 °C 1006.8 hPa East 3.2 km/h 3.2 km/h 96% 3.0 mm 11 W/m2
08:10 16.6 °C 16 °C 1006.4 hPa Calm   3.2 km/h 96% 3.8 mm 12 W/m2
08:15 16.6 °C 16 °C 1006.8 hPa Calm     96% 4.1 mm 19 W/m2
08:20 16.6 °C 16 °C 1006.4 hPa NE 1.4 km/h 3.2 km/h 96% 4.3 mm 19 W/m2
08:25 16.6 °C 16 °C 1006.4 hPa NE 1.4 km/h 3.2 km/h 96% 4.8 mm 23 W/m2
08:30 16.6 °C 16 °C 1006.4 hPa East 3.2 km/h 4.8 km/h 96% 4.8 mm 16 W/m2
08:35 16.6 °C 16 °C 1006.4 hPa ENE 3.2 km/h 3.2 km/h 96% 5.1 mm 14 W/m2
08:40 16.6 °C 16 °C 1005.8 hPa Calm   3.2 km/h 96% 5.1 mm 19 W/m2
08:45 16.6 °C 16 °C 1006.1 hPa NE 3.2 km/h 3.2 km/h 96% 4.6 mm 58 W/m2
08:50 16.7 °C 16.2 °C 1006.4 hPa East 3.2 km/h 3.2 km/h 97% 4.3 mm 84 W/m2
08:55 16.8 °C 16.3 °C 1006.4 hPa NE 3.2 km/h 3.2 km/h 97% 4.1 mm 132 W/m2
09:00 16.8 °C 16.3 °C 1006.4 hPa NE 1.4 km/h 3.2 km/h 97% 3.6 mm 111 W/m2
09:05 16.9 °C 16.4 °C 1006.4 hPa ENE 3.2 km/h 4.8 km/h 97% 2.8 mm 97 W/m2
09:10 17 °C 16.5 °C 1006.8 hPa NE 1.4 km/h 3.2 km/h 97% 2.3 mm 69 W/m2
09:15 16.9 °C 16.4 °C 1006.4 hPa ENE 3.2 km/h 4.8 km/h 97% 2.0 mm 76 W/m2
09:20 17 °C 16.5 °C 1006.4 hPa East 1.4 km/h 3.2 km/h 97% 1.5 mm 105 W/m2
09:25 17.1 °C 16.6 °C 1007.1 hPa Calm   1.6 km/h 97% 1.3 mm 97 W/m2
09:30 17 °C 16.5 °C 1007.1 hPa Calm   4.8 km/h 97% 1.0 mm 74 W/m2
09:35 16.9 °C 16.4 °C 1007.5 hPa Calm   4.8 km/h 97% 0.8 mm 60 W/m2
09:40 16.9 °C 16.4 °C 1007.5 hPa Calm   4.8 km/h 97% 0.5 mm 58 W/m2
09:45 16.9 °C 16.3 °C 1007.5 hPa Calm   4.8 km/h 96% 0.5 mm 70 W/m2
09:50 16.9 °C 16.3 °C 1007.5 hPa ENE 1.4 km/h 8 km/h 96% 0.5 mm 79 W/m2
09:55 16.8 °C 16.2 °C 1007.5 hPa WNW 9.7 km/h 11.3 km/h 96% 0.5 mm 79 W/m2
10:00 16.7 °C 15.9 °C 1007.1 hPa ENE 3.2 km/h 6.4 km/h 95% 0.5 mm 88 W/m2
10:05 16.8 °C 16 °C 1007.5 hPa WSW 4.7 km/h 9.7 km/h 95% 0.5 mm 128 W/m2
10:10 16.8 °C 16 °C 1007.1 hPa Calm   3.2 km/h 95% 0.5 mm 128 W/m2
10:15 16.9 °C 16.1 °C 1007.5 hPa ENE 1.4 km/h 9.7 km/h 95% 0.5 mm 123 W/m2
10:20 16.9 °C 15.9 °C 1007.5 hPa NNE 1.4 km/h 6.4 km/h 94% 0.5 mm 139 W/m2
10:25 17.1 °C 16.1 °C 1007.5 hPa WNW 4.7 km/h 6.4 km/h 94% 0.5 mm 88 W/m2
10:30 17.1 °C 16.1 °C 1007.5 hPa Calm   3.2 km/h 94% 0.5 mm 88 W/m2
10:35 17.2 °C 16.2 °C 1007.8 hPa NW 3.2 km/h 6.4 km/h 94% 0.5 mm 163 W/m2
10:40 17.1 °C 16 °C 1008.1 hPa NNW 6.4 km/h 6.4 km/h 93% 0.2 mm 193 W/m2
10:45 17.1 °C 15.8 °C 1008.1 hPa North 1.4 km/h 4.8 km/h 92% 0.2 mm 206 W/m2
10:50 17.2 °C 15.9 °C 1008.1 hPa NW 13 km/h 14.5 km/h 92% 0.0 mm 211 W/m2
10:55 17.2 °C 15.5 °C 1008.1 hPa NNW 3.2 km/h 12.9 km/h 90% 0.0 mm 213 W/m2
11:00 17.2 °C 15.5 °C 1008.1 hPa NNW 3.2 km/h 14.5 km/h 90% 0.0 mm 251 W/m2
11:05 17.2 °C 15.5 °C 1007.8 hPa WNW 4.7 km/h 8 km/h 90% 0.0 mm 264 W/m2
11:10 17.2 °C 15.4 °C 1008.1 hPa NW 1.4 km/h 4.8 km/h 89% 0.0 mm 294 W/m2
11:15 17.3 °C 15.6 °C 1008.1 hPa NW 3.2 km/h 6.4 km/h 90% 0.0 mm 283 W/m2
11:20 17.4 °C 15.6 °C 1008.1 hPa NNE 1.4 km/h 8 km/h 89% 0.0 mm 274 W/m2
11:25 17.4 °C 15.7 °C 1008.1 hPa NNE 3.2 km/h 4.8 km/h 90% 0.0 mm 403 W/m2
11:30 17.6 °C 15.8 °C 1008.1 hPa North 6.4 km/h 8 km/h 89% 0.0 mm 350 W/m2
11:35 17.7 °C 15.9 °C 1008.1 hPa ENE 1.4 km/h 4.8 km/h 89% 0.0 mm 334 W/m2
11:40 17.9 °C 16.1 °C 1008.5 hPa West 3.2 km/h 4.8 km/h 89% 0.0 mm 526 W/m2
11:45 18.1 °C 16.3 °C 1008.5 hPa WSW 6.4 km/h 11.3 km/h 89% 0.0 mm 541 W/m2
11:50 18.3 °C 16.1 °C 1008.5 hPa WSW 1.4 km/h 11.3 km/h 87% 0.0 mm 1069 W/m2
11:56 18.6 °C 16.2 °C 1008.5 hPa NNE 3.2 km/h 14.5 km/h 86% 0.0 mm 912 W/m2
12:01 19.1 °C 16.7 °C 1008.5 hPa ENE 6.4 km/h 6.4 km/h 86% 0.0 mm 946 W/m2
12:06 19.3 °C 16.3 °C 1008.1 hPa NW 11.1 km/h 11.3 km/h 83% 0.0 mm 904 W/m2
12:11 19.4 °C 16.2 °C 1008.5 hPa North 3.2 km/h 19.3 km/h 82% 0.0 mm 918 W/m2
12:16 19.6 °C 16.2 °C 1008.1 hPa Calm   11.3 km/h 81% 0.0 mm 1076 W/m2
12:21 19.7 °C 16.2 °C 1008.1 hPa WNW 7.9 km/h 9.7 km/h 80% 0.0 mm 1007 W/m2
12:26 19.8 °C 16.4 °C 1008.1 hPa NW 6.4 km/h 11.3 km/h 81% 0.0 mm 355 W/m2
12:31 19.8 °C 16.2 °C 1008.1 hPa WNW 11.1 km/h 17.7 km/h 80% 0.0 mm 276 W/m2
12:36 19.7 °C 16.2 °C 1008.1 hPa WSW 6.4 km/h 9.7 km/h 80% 0.0 mm 225 W/m2
12:41 19.5 °C 16 °C 1008.5 hPa NW 6.4 km/h 8 km/h 80% 0.0 mm 1065 W/m2
12:46 19.7 °C 16 °C 1008.5 hPa NNW 3.2 km/h 6.4 km/h 79% 0.0 mm 1014 W/m2
12:51 20.2 °C 16 °C 1008.5 hPa NW 9.7 km/h 19.3 km/h 77% 0.0 mm 1146 W/m2
12:56 20.3 °C 15.7 °C 1008.5 hPa WSW 13 km/h 12.9 km/h 75% 0.0 mm 1109 W/m2
13:01 20.3 °C 15.5 °C 1008.5 hPa WNW 14.3 km/h 19.3 km/h 74% 0.0 mm 1027 W/m2
13:06 20.4 °C 15.4 °C 1008.5 hPa SSE 6.4 km/h 11.3 km/h 73% 0.0 mm 323 W/m2
13:11 20.4 °C 15 °C 1008.5 hPa NNE 6.4 km/h 20.9 km/h 71% 0.0 mm 575 W/m2
13:16 20.4 °C 15 °C 1008.8 hPa ESE 4.7 km/h 14.5 km/h 71% 0.0 mm 654 W/m2
13:21 20.4 °C 14.7 °C 1008.8 hPa WNW 1.4 km/h 20.9 km/h 70% 0.0 mm 469 W/m2
13:26 20.3 °C 15.1 °C 1008.8 hPa NW 4.7 km/h 17.7 km/h 72% 0.0 mm 471 W/m2
13:31 20.3 °C 15.1 °C 1008.8 hPa North 16.3 km/h 16.1 km/h 72% 0.0 mm 427 W/m2
13:36 20.1 °C 14.5 °C 1008.8 hPa East 4.7 km/h 8 km/h 70% 0.0 mm 545 W/m2
13:41 20.2 °C 14.6 °C 1009.1 hPa WSW 14.3 km/h 24.1 km/h 70% 0.0 mm 367 W/m2
13:46 20.1 °C 14.2 °C 1008.8 hPa North 3.2 km/h 14.5 km/h 69% 0.0 mm 473 W/m2
13:51 20.1 °C 14.5 °C 1009.1 hPa NNW 20.9 km/h 25.7 km/h 70% 0.0 mm 520 W/m2
13:56 20.1 °C 14.5 °C 1009.1 hPa Calm   8 km/h 70% 0.0 mm 568 W/m2
14:01 20.2 °C 14.3 °C 1008.8 hPa Calm   25.7 km/h 69% 0.0 mm 499 W/m2
14:06 20.2 °C 13.6 °C 1009.1 hPa West 6.4 km/h 14.5 km/h 66% 0.0 mm 536 W/m2
14:12 20.3 °C 14.2 °C 1009.1 hPa WSW 3.2 km/h 11.3 km/h 68% 0.0 mm 404 W/m2
14:17 20.2 °C 13.6 °C 1009.1 hPa North 3.2 km/h 4.8 km/h 66% 0.0 mm 506 W/m2
14:22 20.2 °C 13.9 °C 1009.1 hPa SSW 4.7 km/h 12.9 km/h 67% 0.0 mm 455 W/m2
14:27 20.2 °C 13.6 °C 1009.1 hPa NNW 3.2 km/h 6.4 km/h 66% 0.0 mm 374 W/m2
14:32 20.2 °C 13.9 °C 1009.1 hPa East 3.2 km/h 8 km/h 67% 0.0 mm 371 W/m2
14:37 20.4 °C 13.8 °C 1009.1 hPa WNW 6.4 km/h 12.9 km/h 66% 0.0 mm 512 W/m2
14:42 20.5 °C 14.2 °C 1009.1 hPa North 11.1 km/h 11.3 km/h 67% 0.0 mm 508 W/m2
14:47 20.6 °C 13.8 °C 1009.1 hPa NNW 3.2 km/h 8 km/h 65% 0.0 mm 454 W/m2
14:52 20.6 °C 14 °C 1009.1 hPa NW 3.2 km/h 17.7 km/h 66% 0.0 mm 529 W/m2
14:57 20.6 °C 14 °C 1009.5 hPa West 4.7 km/h 12.9 km/h 66% 0.0 mm 410 W/m2
15:02 20.6 °C 14.3 °C 1009.5 hPa SW 1.4 km/h 14.5 km/h 67% 0.0 mm 371 W/m2
15:07 20.6 °C 14.3 °C 1009.5 hPa East 6.4 km/h 6.4 km/h 67% 0.0 mm 404 W/m2
15:12 20.6 °C 14 °C 1009.5 hPa ENE 6.4 km/h 6.4 km/h 66% 0.0 mm 373 W/m2
15:17 20.6 °C 13.8 °C 1009.5 hPa SW 4.7 km/h 8 km/h 65% 0.0 mm 410 W/m2
15:22 20.6 °C 13.8 °C 1009.5 hPa West 9.7 km/h 16.1 km/h 65% 0.0 mm 492 W/m2
15:27 20.5 °C 13.9 °C 1009.1 hPa NNW 14.3 km/h 17.7 km/h 66% 0.0 mm 566 W/m2
15:32 20.6 °C 13.8 °C 1009.5 hPa ESE 3.2 km/h 4.8 km/h 65% 0.0 mm 490 W/m2
15:37 20.7 °C 14.1 °C 1009.1 hPa WNW 1.4 km/h 17.7 km/h 66% 0.0 mm 323 W/m2
15:42 20.6 °C 14 °C 1009.5 hPa NNW 3.2 km/h 19.3 km/h 66% 0.0 mm 318 W/m2
15:47 20.6 °C 14.7 °C 1009.5 hPa NW 1.4 km/h 9.7 km/h 69% 0.0 mm 371 W/m2
15:52 20.5 °C 14.6 °C 1009.8 hPa WNW 1.4 km/h 14.5 km/h 69% 0.0 mm 376 W/m2
15:57 20.6 °C 14.9 °C 1009.8 hPa NNW 4.7 km/h 9.7 km/h 70% 0.0 mm 388 W/m2
16:02 20.7 °C 14.8 °C 1009.8 hPa WSW 4.7 km/h 12.9 km/h 69% 0.0 mm 411 W/m2
16:07 20.6 °C 14.7 °C 1009.8 hPa NNW 6.4 km/h 8 km/h 69% 0.0 mm 552 W/m2
16:12 20.6 °C 14.7 °C 1009.8 hPa NNE 3.2 km/h 14.5 km/h 69% 0.0 mm 436 W/m2
16:17 20.6 °C 14.5 °C 1009.8 hPa East 3.2 km/h 11.3 km/h 68% 0.0 mm 406 W/m2
16:22 20.6 °C 14.5 °C 1009.8 hPa NW 1.4 km/h 6.4 km/h 68% 0.0 mm 339 W/m2
16:27 20.7 °C 14.4 °C 1010.2 hPa ENE 4.7 km/h 8 km/h 67% 0.0 mm 520 W/m2
16:32 20.7 °C 12.9 °C 1009.8 hPa WNW 11.1 km/h 17.7 km/h 61% 0.0 mm 417 W/m2
16:37 20.7 °C 12.9 °C 1009.8 hPa North 9.7 km/h 9.7 km/h 61% 0.0 mm 471 W/m2
16:42 20.8 °C 13.3 °C 1009.8 hPa West 6.4 km/h 11.3 km/h 62% 0.0 mm 501 W/m2
16:47 20.8 °C 13.3 °C 1009.8 hPa North 1.4 km/h 4.8 km/h 62% 0.0 mm 561 W/m2
16:52 21 °C 13.2 °C 1010.2 hPa NNE 3.2 km/h 12.9 km/h 61% 0.0 mm 563 W/m2
16:57 21.1 °C 13.3 °C 1009.8 hPa Calm   3.2 km/h 61% 0.0 mm 522 W/m2
17:02 21.3 °C 13.2 °C 1009.8 hPa WNW 13 km/h 12.9 km/h 60% 0.0 mm 445 W/m2
17:07 21.3 °C 13 °C 1009.8 hPa NNE 3.2 km/h 6.4 km/h 59% 0.0 mm 659 W/m2
17:12 21.3 °C 13.5 °C 1009.8 hPa ENE 3.2 km/h 9.7 km/h 61% 0.0 mm 292 W/m2
17:17 21.2 °C 13.1 °C 1009.8 hPa SW 1.4 km/h 9.7 km/h 60% 0.0 mm 297 W/m2
17:22 21.1 °C 13 °C 1009.8 hPa NE 1.4 km/h 6.4 km/h 60% 0.0 mm 304 W/m2
17:27 21.1 °C 13.5 °C 1009.8 hPa NE 1.4 km/h 3.2 km/h 62% 0.0 mm 276 W/m2
17:32 21.1 °C 13.3 °C 1010.2 hPa South 3.2 km/h 14.5 km/h 61% 0.0 mm 283 W/m2
17:37 20.9 °C 12.6 °C 1010.2 hPa WSW 1.4 km/h 6.4 km/h 59% 0.0 mm 253 W/m2
17:42 20.9 °C 12.8 °C 1010.2 hPa Calm   14.5 km/h 60% 0.0 mm 274 W/m2
17:47 20.9 °C 12.8 °C 1010.2 hPa Calm   3.2 km/h 60% 0.0 mm 213 W/m2
17:52 20.9 °C 12.8 °C 1010.2 hPa West 3.2 km/h 6.4 km/h 60% 0.0 mm 183 W/m2
17:57 20.8 °C 13.3 °C 1010.2 hPa ESE 3.2 km/h 6.4 km/h 62% 0.0 mm 171 W/m2
18:02 20.7 °C 13.9 °C 1010.2 hPa SW 1.4 km/h 3.2 km/h 65% 0.0 mm 162 W/m2
18:07 20.6 °C 12.8 °C 1010.2 hPa SW 3.2 km/h 8 km/h 61% 0.0 mm 160 W/m2
18:12 20.6 °C 14 °C 1010.2 hPa Calm   1.6 km/h 66% 0.0 mm 158 W/m2
18:17 20.5 °C 13.5 °C 1010.2 hPa Calm   1.6 km/h 64% 0.0 mm 169 W/m2
18:22 20.5 °C 14.4 °C 1010.2 hPa NW 4.7 km/h 4.8 km/h 68% 0.0 mm 125 W/m2
18:27 20.4 °C 14.3 °C 1010.2 hPa Calm     68% 0.0 mm 120 W/m2
18:32 20.4 °C 13.8 °C 1010.2 hPa North 1.4 km/h 1.6 km/h 66% 0.0 mm 120 W/m2
18:37 20.3 °C 14.2 °C 1010.2 hPa Calm     68% 0.0 mm 135 W/m2
18:42 20.4 °C 13.6 °C 1010.2 hPa North 1.4 km/h 1.6 km/h 65% 0.0 mm 186 W/m2
18:47 20.4 °C 13.8 °C 1010.2 hPa Calm   3.2 km/h 66% 0.0 mm 109 W/m2
18:52 20.5 °C 14.4 °C 1010.2 hPa NW 1.4 km/h 3.2 km/h 68% 0.0 mm 114 W/m2
18:57 20.5 °C 14.2 °C 1010.2 hPa Calm   1.6 km/h 67% 0.0 mm 118 W/m2
Juneau County Weather
Compliments of Weather Underground - 2 mb